Dexter, Maine
Current Conditions -  °F | °C
As of 5:53 AM on Wednesday 22 Oct 2014 (Local Time) from KBGR Reporting Station
Overcast Overcast  
Wind Chill:   Ceiling: 700
Heat Index:   Visibility: 10mi
Dew Point:   Wind: 13mph
Humidity: 93%   Direction: 20°NNE
Pressure: 30.19"   Gusts: NA
Location:  45.02°N, 69.28°W
Report Text: KBGR 220953Z 02011KT 10SM BKN007 BKN060 OVC090 07/06 A3019 RMK AO2 DZE48 CIG 005V011 SLP224 P0000 T00720061
Loading
Personal Weather Stations






























Interactive Weather Map
Tropical Storm Tracking
New forecast layout! Learn more

10-Day Weather Forecast

Advertisements
Track Severe Weather on mobile